sensor_id;sensor_type;location;lat;lon;timestamp;pressure;altitude;pressure_sealevel;temperature;humidity
78825;BME280;68176;45.554;10.220;2023-05-20T00:01:41;99985.94;;;16.94;67.19
78825;BME280;68176;45.554;10.220;2023-05-20T00:04:11;100034.41;;;17.19;67.02
78825;BME280;68176;45.554;10.220;2023-05-20T00:06:43;99999.69;;;16.97;66.89
78825;BME280;68176;45.554;10.220;2023-05-20T00:09:14;100012.91;;;17.05;66.82
78825;BME280;68176;45.554;10.220;2023-05-20T00:11:41;100015.72;;;17.04;67.04
78825;BME280;68176;45.554;10.220;2023-05-20T00:14:11;99996.03;;;16.98;67.09
78825;BME280;68176;45.554;10.220;2023-05-20T00:16:44;100008.09;;;17.09;67.08
78825;BME280;68176;45.554;10.220;2023-05-20T00:19:11;99989.44;;;16.94;66.88
78825;BME280;68176;45.554;10.220;2023-05-20T00:21:41;100005.63;;;17.08;66.72
78825;BME280;68176;45.554;10.220;2023-05-20T00:24:11;100004.78;;;17.07;66.87
78825;BME280;68176;45.554;10.220;2023-05-20T00:26:46;100001.00;;;17.01;66.74
78825;BME280;68176;45.554;10.220;2023-05-20T00:29:11;100005.28;;;17.02;66.97
78825;BME280;68176;45.554;10.220;2023-05-20T00:31:41;99991.56;;;16.99;66.82
78825;BME280;68176;45.554;10.220;2023-05-20T00:34:11;100020.84;;;17.14;67.02
78825;BME280;68176;45.554;10.220;2023-05-20T00:36:44;99999.50;;;17.07;66.89
78825;BME280;68176;45.554;10.220;2023-05-20T00:39:14;100029.44;;;17.16;66.70
78825;BME280;68176;45.554;10.220;2023-05-20T00:41:41;99999.66;;;17.14;67.00
78825;BME280;68176;45.554;10.220;2023-05-20T00:44:11;99986.41;;;17.05;66.90
78825;BME280;68176;45.554;10.220;2023-05-20T00:46:41;99985.09;;;17.01;66.64
78825;BME280;68176;45.554;10.220;2023-05-20T00:49:14;100001.63;;;17.12;66.90
78825;BME280;68176;45.554;10.220;2023-05-20T00:51:41;99981.78;;;16.99;66.92
78825;BME280;68176;45.554;10.220;2023-05-20T00:54:14;99976.47;;;16.99;66.68
78825;BME280;68176;45.554;10.220;2023-05-20T00:56:41;99986.25;;;16.99;66.87
78825;BME280;68176;45.554;10.220;2023-05-20T00:59:11;99990.06;;;17.04;66.80
78825;BME280;68176;45.554;10.220;2023-05-20T01:01:41;100007.59;;;17.14;66.67
78825;BME280;68176;45.554;10.220;2023-05-20T01:04:12;99998.03;;;17.04;66.61
78825;BME280;68176;45.554;10.220;2023-05-20T01:06:41;99968.91;;;16.88;66.70
78825;BME280;68176;45.554;10.220;2023-05-20T01:09:12;99980.81;;;16.92;66.79
78825;BME280;68176;45.554;10.220;2023-05-20T01:11:47;99975.84;;;16.97;66.80
78825;BME280;68176;45.554;10.220;2023-05-20T01:14:16;99970.53;;;16.89;66.96
78825;BME280;68176;45.554;10.220;2023-05-20T01:16:44;99983.94;;;16.96;66.63
78825;BME280;68176;45.554;10.220;2023-05-20T01:21:59;99972.69;;;16.94;66.56
78825;BME280;68176;45.554;10.220;2023-05-20T01:24:25;99966.91;;;16.98;66.90
78825;BME280;68176;45.554;10.220;2023-05-20T01:26:52;99961.41;;;17.00;66.62
78825;BME280;68176;45.554;10.220;2023-05-20T01:29:22;99966.22;;;16.96;66.61
78825;BME280;68176;45.554;10.220;2023-05-20T01:31:56;99966.22;;;16.96;66.66
78825;BME280;68176;45.554;10.220;2023-05-20T01:34:24;99974.84;;;16.98;66.43
78825;BME280;68176;45.554;10.220;2023-05-20T01:36:53;99941.94;;;16.85;66.67
78825;BME280;68176;45.554;10.220;2023-05-20T01:39:25;99968.88;;;16.96;66.52
78825;BME280;68176;45.554;10.220;2023-05-20T01:41:52;99938.44;;;16.84;66.46
78825;BME280;68176;45.554;10.220;2023-05-20T01:44:22;99961.59;;;16.98;66.47
78825;BME280;68176;45.554;10.220;2023-05-20T01:46:52;99968.19;;;17.02;66.50
78825;BME280;68176;45.554;10.220;2023-05-20T01:49:22;99946.34;;;16.92;66.61
78825;BME280;68176;45.554;10.220;2023-05-20T01:51:52;99950.34;;;16.96;66.71
78825;BME280;68176;45.554;10.220;2023-05-20T01:54:22;99950.00;;;16.99;66.72
78825;BME280;68176;45.554;10.220;2023-05-20T01:56:52;99959.91;;;17.05;66.39
78825;BME280;68176;45.554;10.220;2023-05-20T01:59:22;99913.78;;;16.84;66.59
78825;BME280;68176;45.554;10.220;2023-05-20T02:01:52;99926.19;;;16.91;66.47
78825;BME280;68176;45.554;10.220;2023-05-20T02:04:22;99944.34;;;17.02;66.44
78825;BME280;68176;45.554;10.220;2023-05-20T02:06:52;99933.59;;;16.96;66.48
78825;BME280;68176;45.554;10.220;2023-05-20T02:09:22;99935.25;;;16.97;66.51
78825;BME280;68176;45.554;10.220;2023-05-20T02:11:52;99915.59;;;16.91;66.40
78825;BME280;68176;45.554;10.220;2023-05-20T02:14:22;99911.97;;;16.84;66.34
78825;BME280;68176;45.554;10.220;2023-05-20T02:16:54;99925.50;;;16.97;66.39
78825;BME280;68176;45.554;10.220;2023-05-20T02:19:22;99932.91;;;17.02;66.35
78825;BME280;68176;45.554;10.220;2023-05-20T02:21:52;99928.31;;;16.96;66.38
78825;BME280;68176;45.554;10.220;2023-05-20T02:24:24;99944.19;;;17.04;66.28
78825;BME280;68176;45.554;10.220;2023-05-20T02:26:52;99917.22;;;16.92;66.49
78825;BME280;68176;45.554;10.220;2023-05-20T02:29:22;99910.28;;;16.83;66.19
78825;BME280;68176;45.554;10.220;2023-05-20T02:31:52;99923.00;;;16.96;66.09
78825;BME280;68176;45.554;10.220;2023-05-20T02:34:22;99909.94;;;16.94;66.27
78825;BME280;68176;45.554;10.220;2023-05-20T02:36:52;99914.28;;;16.87;66.16
78825;BME280;68176;45.554;10.220;2023-05-20T02:39:22;99931.78;;;16.96;66.29
78825;BME280;68176;45.554;10.220;2023-05-20T02:41:52;99932.81;;;16.95;66.08
78825;BME280;68176;45.554;10.220;2023-05-20T02:44:22;99931.13;;;16.94;66.15
78825;BME280;68176;45.554;10.220;2023-05-20T02:46:52;99934.09;;;16.99;66.19
78825;BME280;68176;45.554;10.220;2023-05-20T02:49:22;99907.34;;;16.78;66.02
78825;BME280;68176;45.554;10.220;2023-05-20T02:51:52;99908.00;;;16.80;66.20
78825;BME280;68176;45.554;10.220;2023-05-20T02:54:51;99906.34;;;16.79;66.07
78825;BME280;68176;45.554;10.220;2023-05-20T02:57:17;99921.22;;;16.88;66.27
78825;BME280;68176;45.554;10.220;2023-05-20T02:59:42;99912.59;;;16.86;66.29
78825;BME280;68176;45.554;10.220;2023-05-20T03:02:13;99927.00;;;16.92;66.30
78825;BME280;68176;45.554;10.220;2023-05-20T03:04:41;99926.00;;;16.93;66.24
78825;BME280;68176;45.554;10.220;2023-05-20T03:07:13;99914.75;;;16.91;66.11
78825;BME280;68176;45.554;10.220;2023-05-20T03:09:41;99912.94;;;16.83;66.12
78825;BME280;68176;45.554;10.220;2023-05-20T03:12:11;99895.91;;;16.78;65.93
78825;BME280;68176;45.554;10.220;2023-05-20T03:14:41;99926.34;;;16.98;66.00
78825;BME280;68176;45.554;10.220;2023-05-20T03:17:11;99900.38;;;16.85;65.99
78825;BME280;68176;45.554;10.220;2023-05-20T03:19:41;99884.81;;;16.82;66.22
78825;BME280;68176;45.554;10.220;2023-05-20T03:22:11;99918.53;;;16.96;66.15
78825;BME280;68176;45.554;10.220;2023-05-20T03:24:41;99898.03;;;16.90;66.09
78825;BME280;68176;45.554;10.220;2023-05-20T03:27:11;99865.13;;;16.77;65.95
78825;BME280;68176;45.554;10.220;2023-05-20T03:29:41;99898.19;;;16.97;66.08
78825;BME280;68176;45.554;10.220;2023-05-20T03:32:11;99866.94;;;16.84;66.00
78825;BME280;68176;45.554;10.220;2023-05-20T03:34:41;99866.94;;;16.84;66.09
78825;BME280;68176;45.554;10.220;2023-05-20T03:37:11;99847.41;;;16.77;65.96
78825;BME280;68176;45.554;10.220;2023-05-20T03:39:43;99858.28;;;16.90;66.07
78825;BME280;68176;45.554;10.220;2023-05-20T03:42:11;99829.22;;;16.74;66.02
78825;BME280;68176;45.554;10.220;2023-05-20T03:44:41;99876.34;;;16.95;65.98
78825;BME280;68176;45.554;10.220;2023-05-20T03:47:13;99870.84;;;16.96;65.93
78825;BME280;68176;45.554;10.220;2023-05-20T03:49:41;99852.69;;;16.85;66.07
78825;BME280;68176;45.554;10.220;2023-05-20T03:52:11;99853.34;;;16.87;65.83
78825;BME280;68176;45.554;10.220;2023-05-20T03:54:41;99869.22;;;16.95;65.93
78825;BME280;68176;45.554;10.220;2023-05-20T03:57:11;99860.59;;;16.93;65.92
78825;BME280;68176;45.554;10.220;2023-05-20T03:59:52;99869.22;;;16.95;65.79
78825;BME280;68176;45.554;10.220;2023-05-20T04:02:17;99862.25;;;16.94;65.90
78825;BME280;68176;45.554;10.220;2023-05-20T04:04:42;99834.88;;;16.71;65.82
78825;BME280;68176;45.554;10.220;2023-05-20T04:07:14;99851.38;;;16.81;65.80
78825;BME280;68176;45.554;10.220;2023-05-20T04:09:50;99843.44;;;16.81;65.97
78825;BME280;68176;45.554;10.220;2023-05-20T04:12:16;99842.78;;;16.79;65.87
78825;BME280;68176;45.554;10.220;2023-05-20T04:14:46;99861.78;;;16.91;65.96
78825;BME280;68176;45.554;10.220;2023-05-20T04:17:14;99816.66;;;16.68;66.00
78825;BME280;68176;45.554;10.220;2023-05-20T04:19:41;99849.38;;;16.83;65.85
78825;BME280;68176;45.554;10.220;2023-05-20T04:22:11;99860.94;;;16.90;66.04
78825;BME280;68176;45.554;10.220;2023-05-20T04:24:41;99844.41;;;16.80;65.94
78825;BME280;68176;45.554;10.220;2023-05-20T04:27:11;99856.63;;;16.89;65.89
78825;BME280;68176;45.554;10.220;2023-05-20T04:29:45;99820.97;;;16.69;65.63
78825;BME280;68176;45.554;10.220;2023-05-20T04:32:12;99863.78;;;16.89;65.90
78825;BME280;68176;45.554;10.220;2023-05-20T04:34:41;99861.00;;;16.82;65.92
78825;BME280;68176;45.554;10.220;2023-05-20T04:37:14;99879.34;;;16.92;65.94
78825;BME280;68176;45.554;10.220;2023-05-20T04:39:41;99854.38;;;16.78;65.77
78825;BME280;68176;45.554;10.220;2023-05-20T04:42:11;99866.09;;;16.84;65.75
78825;BME280;68176;45.554;10.220;2023-05-20T04:44:43;99843.78;;;16.78;66.00
78825;BME280;68176;45.554;10.220;2023-05-20T04:47:14;99874.19;;;16.90;65.78
78825;BME280;68176;45.554;10.220;2023-05-20T04:49:41;99861.16;;;16.81;65.84
78825;BME280;68176;45.554;10.220;2023-05-20T04:52:11;99862.63;;;16.83;65.68
78825;BME280;68176;45.554;10.220;2023-05-20T04:54:41;99856.69;;;16.81;65.58
78825;BME280;68176;45.554;10.220;2023-05-20T04:57:14;99823.97;;;16.66;65.79
78825;BME280;68176;45.554;10.220;2023-05-20T04:59:42;99861.63;;;16.84;65.70
78825;BME280;68176;45.554;10.220;2023-05-20T05:02:16;99855.00;;;16.80;65.88
78825;BME280;68176;45.554;10.220;2023-05-20T05:04:45;99829.91;;;16.76;65.81
78825;BME280;68176;45.554;10.220;2023-05-20T05:07:11;99842.78;;;16.79;65.77
78825;BME280;68176;45.554;10.220;2023-05-20T05:09:44;99833.03;;;16.80;65.54
78825;BME280;68176;45.554;10.220;2023-05-20T05:12:14;99829.34;;;16.81;65.64
78825;BME280;68176;45.554;10.220;2023-05-20T05:14:41;99831.84;;;16.82;65.62
78825;BME280;68176;45.554;10.220;2023-05-20T05:17:11;99825.94;;;16.72;65.64
78825;BME280;68176;45.554;10.220;2023-05-20T05:19:41;99816.66;;;16.68;65.59
78825;BME280;68176;45.554;10.220;2023-05-20T05:22:11;99837.44;;;16.87;65.68
78825;BME280;68176;45.554;10.220;2023-05-20T05:24:41;99827.53;;;16.81;65.62
78825;BME280;68176;45.554;10.220;2023-05-20T05:27:19;99811.34;;;16.76;65.78
78825;BME280;68176;45.554;10.220;2023-05-20T05:29:45;99812.97;;;16.77;65.76
78825;BME280;68176;45.554;10.220;2023-05-20T05:32:13;99807.19;;;16.74;65.63
78825;BME280;68176;45.554;10.220;2023-05-20T05:34:44;99830.50;;;16.86;65.68
78825;BME280;68176;45.554;10.220;2023-05-20T05:37:12;99802.22;;;16.79;65.42
78825;BME280;68176;45.554;10.220;2023-05-20T05:39:42;99811.94;;;16.86;65.72
78825;BME280;68176;45.554;10.220;2023-05-20T05:42:27;99794.44;;;16.77;65.83
78825;BME280;68176;45.554;10.220;2023-05-20T05:45:15;99777.97;;;16.67;65.30
78825;BME280;68176;45.554;10.220;2023-05-20T05:47:48;99775.31;;;16.67;65.59
78825;BME280;68176;45.554;10.220;2023-05-20T05:50:21;99784.53;;;16.79;65.68
78825;BME280;68176;45.554;10.220;2023-05-20T05:55:46;99791.44;;;16.80;65.56
78825;BME280;68176;45.554;10.220;2023-05-20T05:58:17;99780.63;;;16.67;65.57
78825;BME280;68176;45.554;10.220;2023-05-20T06:00:50;99808.31;;;16.87;65.53
78825;BME280;68176;45.554;10.220;2023-05-20T06:03:21;99789.00;;;16.79;65.80
78825;BME280;68176;45.554;10.220;2023-05-20T06:05:51;99789.50;;;16.74;65.50
78825;BME280;68176;45.554;10.220;2023-05-20T06:08:42;99793.63;;;16.77;65.52
78825;BME280;68176;45.554;10.220;2023-05-20T06:11:08;99799.72;;;16.85;65.62
78825;BME280;68176;45.554;10.220;2023-05-20T06:13:34;99771.66;;;16.68;65.55
78825;BME280;68176;45.554;10.220;2023-05-20T06:16:02;99795.94;;;16.80;65.63
78825;BME280;68176;45.554;10.220;2023-05-20T06:18:32;99806.84;;;16.77;65.55
78825;BME280;68176;45.554;10.220;2023-05-20T06:21:02;99800.22;;;16.81;65.40
78825;BME280;68176;45.554;10.220;2023-05-20T06:23:32;99805.38;;;16.82;65.49
78825;BME280;68176;45.554;10.220;2023-05-20T06:26:02;99807.19;;;16.82;65.43
78825;BME280;68176;45.554;10.220;2023-05-20T06:28:32;99797.94;;;16.78;65.45
78825;BME280;68176;45.554;10.220;2023-05-20T06:31:02;99794.28;;;16.79;65.41
78825;BME280;68176;45.554;10.220;2023-05-20T06:33:32;99808.16;;;16.89;65.48
78825;BME280;68176;45.554;10.220;2023-05-20T06:36:02;99801.06;;;16.81;65.20
78825;BME280;68176;45.554;10.220;2023-05-20T06:38:32;99806.66;;;16.86;65.43
78825;BME280;68176;45.554;10.220;2023-05-20T06:41:02;99815.91;;;16.90;65.38
78825;BME280;68176;45.554;10.220;2023-05-20T06:43:32;99782.03;;;16.78;65.32
78825;BME280;68176;45.554;10.220;2023-05-20T06:46:05;99789.13;;;16.85;65.20
78825;BME280;68176;45.554;10.220;2023-05-20T06:48:35;99792.59;;;16.86;65.21
78825;BME280;68176;45.554;10.220;2023-05-20T06:51:31;99782.88;;;16.78;65.05
78825;BME280;68176;45.554;10.220;2023-05-20T06:53:57;99801.25;;;16.80;65.27
78825;BME280;68176;45.554;10.220;2023-05-20T06:56:22;99813.13;;;16.84;65.42
78825;BME280;68176;45.554;10.220;2023-05-20T06:58:51;99820.91;;;16.85;65.40
78825;BME280;68176;45.554;10.220;2023-05-20T07:01:21;99802.53;;;16.84;65.39
78825;BME280;68176;45.554;10.220;2023-05-20T07:03:50;99820.84;;;16.93;65.42
78825;BME280;68176;45.554;10.220;2023-05-20T07:06:21;99805.66;;;16.87;65.09
78825;BME280;68176;45.554;10.220;2023-05-20T07:08:51;99812.78;;;16.87;65.16
78825;BME280;68176;45.554;10.220;2023-05-20T07:11:21;99809.00;;;16.81;65.17
78825;BME280;68176;45.554;10.220;2023-05-20T07:14:03;99805.66;;;16.87;65.21
78825;BME280;68176;45.554;10.220;2023-05-20T07:16:55;99787.19;;;16.71;65.45
78825;BME280;68176;45.554;10.220;2023-05-20T07:22:45;99800.41;;;16.79;65.15
78825;BME280;68176;45.554;10.220;2023-05-20T07:25:11;99808.31;;;16.87;66.95
78825;BME280;68176;45.554;10.220;2023-05-20T07:27:48;99797.94;;;16.78;68.12
78825;BME280;68176;45.554;10.220;2023-05-20T07:30:45;99792.16;;;16.74;67.81
78825;BME280;68176;45.554;10.220;2023-05-20T07:33:26;99792.16;;;16.74;67.35
78825;BME280;68176;45.554;10.220;2023-05-20T07:39:35;99800.06;;;16.82;66.61
78825;BME280;68176;45.554;10.220;2023-05-20T07:42:21;99809.00;;;16.81;66.47
78825;BME280;68176;45.554;10.220;2023-05-20T07:44:57;99781.56;;;16.74;66.57
78825;BME280;68176;45.554;10.220;2023-05-20T07:47:55;99780.56;;;16.75;66.19
78825;BME280;68176;45.554;10.220;2023-05-20T07:50:35;99776.59;;;16.71;66.20
78825;BME280;68176;45.554;10.220;2023-05-20T07:56:10;99806.19;;;16.83;65.95
78825;BME280;68176;45.554;10.220;2023-05-20T08:02:26;99798.41;;;16.81;65.97
78825;BME280;68176;45.554;10.220;2023-05-20T08:09:33;99791.84;;;16.69;65.78
78825;BME280;68176;45.554;10.220;2023-05-20T08:12:29;99791.78;;;16.77;65.79
78825;BME280;68176;45.554;10.220;2023-05-20T08:18:21;99817.56;;;16.91;65.87
78825;BME280;68176;45.554;10.220;2023-05-20T08:24:24;99793.50;;;16.70;65.73
78825;BME280;68176;45.554;10.220;2023-05-20T08:30:28;99802.53;;;16.84;65.75
78825;BME280;68176;45.554;10.220;2023-05-20T08:40:12;99781.03;;;16.79;65.38
78825;BME280;68176;45.554;10.220;2023-05-20T08:45:40;99784.53;;;16.71;65.42
78825;BME280;68176;45.554;10.220;2023-05-20T08:49:04;99786.50;;;16.77;65.46
78825;BME280;68176;45.554;10.220;2023-05-20T08:58:03;99792.41;;;16.87;65.18
78825;BME280;68176;45.554;10.220;2023-05-20T09:01:00;99792.13;;;16.82;64.77
78825;BME280;68176;45.554;10.220;2023-05-20T09:07:36;99845.31;;;17.03;65.05
78825;BME280;68176;45.554;10.220;2023-05-20T09:14:00;99844.34;;;17.04;64.94
78825;BME280;68176;45.554;10.220;2023-05-20T09:16:49;99829.78;;;16.92;64.87
78825;BME280;68176;45.554;10.220;2023-05-20T09:19:30;99815.97;;;16.82;64.97
78825;BME280;68176;45.554;10.220;2023-05-20T09:22:14;99835.75;;;16.94;64.84
78825;BME280;68176;45.554;10.220;2023-05-20T09:25:11;99855.09;;;17.03;64.93
78825;BME280;68176;45.554;10.220;2023-05-20T09:27:50;99843.53;;;16.96;64.56
78825;BME280;68176;45.554;10.220;2023-05-20T09:31:22;99825.69;;;16.90;64.82
78825;BME280;68176;45.554;10.220;2023-05-20T09:34:30;99830.34;;;16.88;64.92
78825;BME280;68176;45.554;10.220;2023-05-20T09:37:38;99845.03;;;16.98;64.99
78825;BME280;68176;45.554;10.220;2023-05-20T09:41:01;99834.78;;;16.87;64.97
78825;BME280;68176;45.554;10.220;2023-05-20T09:46:57;99866.66;;;17.10;68.99
78825;BME280;68176;45.554;10.220;2023-05-20T09:49:27;99835.56;;;16.96;66.58
78825;BME280;68176;45.554;10.220;2023-05-20T09:52:27;99859.84;;;17.16;65.73
78825;BME280;68176;45.554;10.220;2023-05-20T09:55:04;99846.63;;;17.08;65.64
78825;BME280;68176;45.554;10.220;2023-05-20T09:57:35;99817.88;;;16.96;65.40
78825;BME280;68176;45.554;10.220;2023-05-20T10:00:13;99830.06;;;17.05;65.42
78825;BME280;68176;45.554;10.220;2023-05-20T10:03:03;99828.31;;;16.98;65.28
78825;BME280;68176;45.554;10.220;2023-05-20T10:18:00;99826.59;;;17.05;64.77
78825;BME280;68176;45.554;10.220;2023-05-20T10:30:57;99807.88;;;17.06;64.75
78825;BME280;68176;45.554;10.220;2023-05-20T10:37:08;99799.78;;;17.08;64.77
78825;BME280;68176;45.554;10.220;2023-05-20T10:44:12;99800.22;;;17.12;64.52
78825;BME280;68176;45.554;10.220;2023-05-20T11:09:02;99784.09;;;17.44;64.23
78825;BME280;68176;45.554;10.220;2023-05-20T11:15:30;99744.66;;;17.26;64.15
78825;BME280;68176;45.554;10.220;2023-05-20T11:18:09;99745.47;;;17.27;64.30
78825;BME280;68176;45.554;10.220;2023-05-20T11:21:10;99775.50;;;17.42;63.97
78825;BME280;68176;45.554;10.220;2023-05-20T11:27:22;99765.63;;;17.36;63.75
78825;BME280;68176;45.554;10.220;2023-05-20T11:30:51;99792.00;;;17.52;63.94
78825;BME280;68176;45.554;10.220;2023-05-20T11:34:19;99769.72;;;17.38;64.11
78825;BME280;68176;45.554;10.220;2023-05-20T11:37:47;99753.06;;;17.30;63.98
78825;BME280;68176;45.554;10.220;2023-05-20T11:40:26;99779.38;;;17.54;64.08
78825;BME280;68176;45.554;10.220;2023-05-20T11:49:23;99752.34;;;17.36;64.18
78825;BME280;68176;45.554;10.220;2023-05-20T11:52:12;99744.56;;;17.34;64.11
78825;BME280;68176;45.554;10.220;2023-05-20T11:55:48;99738.16;;;17.29;64.31
78825;BME280;68176;45.554;10.220;2023-05-20T12:08:16;99779.09;;;17.49;64.23
78825;BME280;68176;45.554;10.220;2023-05-20T12:13:21;99724.06;;;17.28;64.41
78825;BME280;68176;45.554;10.220;2023-05-20T12:16:23;99721.63;;;17.27;64.20
78825;BME280;68176;45.554;10.220;2023-05-20T12:26:13;99728.19;;;17.31;64.17
78825;BME280;68176;45.554;10.220;2023-05-20T12:39:05;99730.84;;;17.31;64.06
78825;BME280;68176;45.554;10.220;2023-05-20T12:41:31;99730.84;;;17.31;64.09
78825;BME280;68176;45.554;10.220;2023-05-20T13:05:32;99769.50;;;17.48;64.17
78825;BME280;68176;45.554;10.220;2023-05-20T13:15:07;99793.16;;;17.57;64.01
78825;BME280;68176;45.554;10.220;2023-05-20T13:17:33;99779.91;;;17.49;64.11
78825;BME280;68176;45.554;10.220;2023-05-20T13:44:04;99773.84;;;17.41;64.05
78825;BME280;68176;45.554;10.220;2023-05-20T14:25:37;99737.13;;;17.52;63.74
78825;BME280;68176;45.554;10.220;2023-05-20T14:31:57;99756.59;;;17.68;63.87
78825;BME280;68176;45.554;10.220;2023-05-20T14:46:29;99737.56;;;17.64;63.95
78825;BME280;68176;45.554;10.220;2023-05-20T14:59:44;99709.16;;;17.50;63.85
78825;BME280;68176;45.554;10.220;2023-05-20T15:02:53;99728.03;;;17.55;63.72
78825;BME280;68176;45.554;10.220;2023-05-20T15:16:01;99728.38;;;17.52;63.93
78825;BME280;68176;45.554;10.220;2023-05-20T16:15:25;99729.31;;;17.59;63.47
78825;BME280;68176;45.554;10.220;2023-05-20T16:43:18;99720.09;;;17.47;63.88
78825;BME280;68176;45.554;10.220;2023-05-20T16:49:00;99753.28;;;17.66;63.93
78825;BME280;68176;45.554;10.220;2023-05-20T16:51:57;99734.38;;;17.46;63.90
78825;BME280;68176;45.554;10.220;2023-05-20T16:57:27;99722.47;;;17.42;64.03
78825;BME280;68176;45.554;10.220;2023-05-20T17:19:18;99741.69;;;17.44;63.99
78825;BME280;68176;45.554;10.220;2023-05-20T17:22:01;99731.06;;;17.44;63.91
78825;BME280;68176;45.554;10.220;2023-05-20T17:25:30;99718.16;;;17.41;63.85
78825;BME280;68176;45.554;10.220;2023-05-20T17:28:04;99760.78;;;17.62;63.98
78825;BME280;68176;45.554;10.220;2023-05-20T17:36:30;99759.88;;;17.55;64.16
78825;BME280;68176;45.554;10.220;2023-05-20T17:38:56;99764.81;;;17.58;64.10
78825;BME280;68176;45.554;10.220;2023-05-20T17:41:24;99768.09;;;17.60;64.01
78825;BME280;68176;45.554;10.220;2023-05-20T17:43:54;99760.66;;;17.55;64.12
78825;BME280;68176;45.554;10.220;2023-05-20T17:46:24;99760.34;;;17.58;63.93
78825;BME280;68176;45.554;10.220;2023-05-20T17:48:54;99753.22;;;17.51;64.05
78825;BME280;68176;45.554;10.220;2023-05-20T17:51:27;99757.53;;;17.52;63.81
78825;BME280;68176;45.554;10.220;2023-05-20T17:53:54;99764.00;;;17.49;64.02
78825;BME280;68176;45.554;10.220;2023-05-20T17:56:24;99764.47;;;17.53;63.82
78825;BME280;68176;45.554;10.220;2023-05-20T17:58:54;99752.28;;;17.44;63.90
78825;BME280;68176;45.554;10.220;2023-05-20T18:01:24;99773.75;;;17.57;64.17
78825;BME280;68176;45.554;10.220;2023-05-20T18:03:54;99777.03;;;17.59;64.06
78825;BME280;68176;45.554;10.220;2023-05-20T18:06:24;99767.47;;;17.50;63.66
78825;BME280;68176;45.554;10.220;2023-05-20T18:08:54;99762.53;;;17.47;64.11
78825;BME280;68176;45.554;10.220;2023-05-20T18:11:27;99775.41;;;17.58;63.78
78825;BME280;68176;45.554;10.220;2023-05-20T18:13:54;99777.56;;;17.54;63.90
78825;BME280;68176;45.554;10.220;2023-05-20T18:16:25;99797.25;;;17.60;63.78
78825;BME280;68176;45.554;10.220;2023-05-20T18:18:55;99790.50;;;17.57;63.94
78825;BME280;68176;45.554;10.220;2023-05-20T18:21:24;99786.03;;;17.58;63.78
78825;BME280;68176;45.554;10.220;2023-05-20T18:23:54;99788.00;;;17.56;64.00
78825;BME280;68176;45.554;10.220;2023-05-20T18:26:24;99800.28;;;17.57;64.02
78825;BME280;68176;45.554;10.220;2023-05-20T18:28:54;99797.00;;;17.55;64.01
78825;BME280;68176;45.554;10.220;2023-05-20T18:31:24;99800.59;;;17.54;63.96
78825;BME280;68176;45.554;10.220;2023-05-20T18:33:54;99793.16;;;17.49;63.81
78825;BME280;68176;45.554;10.220;2023-05-20T18:36:24;99810.38;;;17.53;63.96
78825;BME280;68176;45.554;10.220;2023-05-20T18:38:55;99815.81;;;17.60;64.06
78825;BME280;68176;45.554;10.220;2023-05-20T18:41:24;99810.38;;;17.53;64.02
78825;BME280;68176;45.554;10.220;2023-05-20T18:43:54;99818.06;;;17.48;64.21
78825;BME280;68176;45.554;10.220;2023-05-20T18:46:24;99819.81;;;17.56;64.06
78825;BME280;68176;45.554;10.220;2023-05-20T18:48:54;99809.22;;;17.56;63.88
78825;BME280;68176;45.554;10.220;2023-05-20T18:51:24;99811.56;;;17.51;63.95
78825;BME280;68176;45.554;10.220;2023-05-20T18:53:54;99809.53;;;17.53;63.99
78825;BME280;68176;45.554;10.220;2023-05-20T18:56:24;99815.56;;;17.55;64.11
78825;BME280;68176;45.554;10.220;2023-05-20T18:59:19;99810.06;;;17.56;64.04
78825;BME280;68176;45.554;10.220;2023-05-20T19:01:56;99813.56;;;17.49;64.21
78825;BME280;68176;45.554;10.220;2023-05-20T19:04:24;99820.88;;;17.47;64.25
78825;BME280;68176;45.554;10.220;2023-05-20T19:06:50;99822.69;;;17.46;64.04
78825;BME280;68176;45.554;10.220;2023-05-20T19:09:18;99833.13;;;17.48;63.97
78825;BME280;68176;45.554;10.220;2023-05-20T19:11:55;99807.84;;;17.37;64.01
78825;BME280;68176;45.554;10.220;2023-05-20T19:14:23;99820.09;;;17.38;64.30
78825;BME280;68176;45.554;10.220;2023-05-20T19:16:49;99816.34;;;17.33;64.19
78825;BME280;68176;45.554;10.220;2023-05-20T19:19:23;99820.94;;;17.39;64.19
78825;BME280;68176;45.554;10.220;2023-05-20T19:21:58;99830.50;;;17.40;64.34
78825;BME280;68176;45.554;10.220;2023-05-20T19:24:27;99841.72;;;17.50;64.26
78825;BME280;68176;45.554;10.220;2023-05-20T19:27:14;99836.50;;;17.42;64.32
78825;BME280;68176;45.554;10.220;2023-05-20T19:29:42;99827.69;;;17.41;64.15
78825;BME280;68176;45.554;10.220;2023-05-20T19:35:39;99802.59;;;17.29;64.42
78825;BME280;68176;45.554;10.220;2023-05-20T19:38:39;99829.84;;;17.46;64.35
78825;BME280;68176;45.554;10.220;2023-05-20T19:41:06;99829.00;;;17.45;64.46
78825;BME280;68176;45.554;10.220;2023-05-20T19:43:39;99808.19;;;17.34;64.41
78825;BME280;68176;45.554;10.220;2023-05-20T19:46:27;99792.47;;;17.33;64.42
78825;BME280;68176;45.554;10.220;2023-05-20T19:48:58;99789.50;;;17.28;64.81
78825;BME280;68176;45.554;10.220;2023-05-20T19:51:30;99789.00;;;17.32;64.45
78825;BME280;68176;45.554;10.220;2023-05-20T19:53:59;99810.97;;;17.41;64.40
78825;BME280;68176;45.554;10.220;2023-05-20T19:56:32;99779.25;;;17.25;64.30
78825;BME280;68176;45.554;10.220;2023-05-20T19:59:15;99785.16;;;17.35;64.35
78825;BME280;68176;45.554;10.220;2023-05-20T20:01:43;99783.84;;;17.31;64.44
78825;BME280;68176;45.554;10.220;2023-05-20T20:04:18;99798.13;;;17.30;64.37
78825;BME280;68176;45.554;10.220;2023-05-20T20:07:02;99783.94;;;17.23;64.47
78825;BME280;68176;45.554;10.220;2023-05-20T20:09:43;99791.16;;;17.29;64.58
78825;BME280;68176;45.554;10.220;2023-05-20T20:12:29;99795.41;;;17.38;64.65